createdAt,value
2018-02-21T00:01:38.540Z,39.73
2018-02-21T00:05:41.088Z,46.00
2018-02-21T00:09:44.413Z,46.37
2018-02-21T00:13:46.942Z,51.53
2018-02-21T00:17:49.511Z,46.40
2018-02-21T00:21:52.027Z,40.13
2018-02-21T00:25:54.576Z,41.43
2018-02-21T00:29:57.141Z,38.17
2018-02-21T00:33:59.677Z,40.40
2018-02-21T00:38:02.277Z,44.47
2018-02-21T00:42:04.954Z,38.50
2018-02-21T00:46:07.485Z,41.50
2018-02-21T00:50:10.033Z,39.03
2018-02-21T00:54:12.665Z,37.77
2018-02-21T00:58:15.179Z,41.17
2018-02-21T01:02:17.719Z,38.70
2018-02-21T01:06:21.001Z,36.03
2018-02-21T01:10:23.554Z,32.43
2018-02-21T01:14:26.068Z,36.30
2018-02-21T01:18:28.644Z,35.77
2018-02-21T01:22:31.173Z,37.70
2018-02-21T01:26:33.709Z,34.37
2018-02-21T01:30:36.337Z,40.20
2018-02-21T01:34:39.638Z,36.20
2018-02-21T01:38:42.933Z,37.10
2018-02-21T01:42:46.242Z,36.67
2018-02-21T01:46:49.513Z,40.30
2018-02-21T01:50:52.730Z,37.17
2018-02-21T01:54:55.240Z,40.10
2018-02-21T01:58:58.554Z,39.73
2018-02-21T02:03:01.065Z,32.20
2018-02-21T02:07:03.600Z,38.53
2018-02-21T02:11:06.128Z,41.70
2018-02-21T02:15:08.672Z,42.83
2018-02-21T02:19:12.652Z,38.60
2018-02-21T02:23:15.191Z,44.20
2018-02-21T02:27:18.465Z,40.30
2018-02-21T02:31:21.009Z,41.50
2018-02-21T02:35:23.524Z,39.70
2018-02-21T02:39:37.808Z,41.10
2018-02-21T02:43:40.353Z,39.67
2018-02-21T02:47:42.894Z,37.53
2018-02-21T02:51:46.198Z,38.03
2018-02-21T02:55:49.487Z,38.00
2018-02-21T02:59:52.018Z,41.43
2018-02-21T03:03:54.653Z,35.37
2018-02-21T03:07:57.168Z,43.33
2018-02-21T03:12:00.473Z,38.50
2018-02-21T03:16:03.771Z,35.63
2018-02-21T03:20:07.047Z,31.07
2018-02-21T03:24:09.597Z,32.33
2018-02-21T03:28:12.121Z,32.20
2018-02-21T03:32:20.318Z,34.60
2018-02-21T03:36:22.824Z,33.43
2018-02-21T03:40:25.347Z,36.67
2018-02-21T03:44:28.640Z,40.67
2018-02-21T03:48:31.946Z,32.73
2018-02-21T03:52:35.229Z,34.10
2018-02-21T03:56:37.767Z,37.47
2018-02-21T04:00:40.284Z,33.43
2018-02-21T04:04:42.826Z,35.10
2018-02-21T04:08:45.329Z,33.33
2018-02-21T04:12:47.865Z,34.27
2018-02-21T04:16:50.372Z,34.40
2018-02-21T04:20:53.665Z,35.13
2018-02-21T04:24:56.944Z,33.80
2018-02-21T04:28:59.478Z,40.17
2018-02-21T04:33:02.007Z,39.27
2018-02-21T04:37:04.531Z,40.30
2018-02-21T04:41:07.837Z,39.43
2018-02-21T04:45:11.153Z,34.10
2018-02-21T04:49:13.670Z,39.20
2018-02-21T04:53:17.032Z,36.47
2018-02-21T04:57:31.069Z,39.33
2018-02-21T05:01:33.596Z,37.57
2018-02-21T05:05:36.099Z,39.20
2018-02-21T05:09:38.740Z,39.53
2018-02-21T05:13:42.021Z,39.20
2018-02-21T05:17:44.567Z,42.20
2018-02-21T05:21:47.080Z,36.90
2018-02-21T05:25:49.645Z,38.33
2018-02-21T05:29:52.149Z,40.57
2018-02-21T05:33:54.705Z,36.83
2018-02-21T05:37:57.250Z,36.80
2018-02-21T05:41:59.800Z,41.60
2018-02-21T05:46:02.375Z,41.07
2018-02-21T05:50:04.888Z,38.73
2018-02-21T05:54:07.418Z,39.23
2018-02-21T05:58:10.702Z,45.67
2018-02-21T06:02:13.242Z,42.90
2018-02-21T06:06:15.748Z,47.67
2018-02-21T06:10:18.286Z,43.23
2018-02-21T06:14:20.789Z,44.20
2018-02-21T06:18:23.432Z,38.57
2018-02-21T06:22:25.912Z,41.43
2018-02-21T06:26:28.452Z,42.50
2018-02-21T06:30:30.986Z,48.37
2018-02-21T06:34:33.525Z,47.50
2018-02-21T06:38:36.032Z,46.90
2018-02-21T06:42:38.564Z,46.07
2018-02-21T06:46:41.858Z,51.27
2018-02-21T06:50:45.222Z,49.27
2018-02-21T06:54:47.744Z,45.50
2018-02-21T06:58:50.263Z,48.17
2018-02-21T07:02:52.848Z,42.33
2018-02-21T07:06:55.379Z,45.80
2018-02-21T07:10:57.911Z,51.93
2018-02-21T07:15:00.452Z,47.93
2018-02-21T07:19:02.985Z,44.10
2018-02-21T07:23:05.528Z,38.23
2018-02-21T07:27:08.044Z,41.50
2018-02-21T07:31:11.341Z,38.03
2018-02-21T07:35:14.658Z,40.00
2018-02-21T07:39:17.973Z,38.63
2018-02-21T07:43:20.479Z,34.07
2018-02-21T07:47:23.235Z,39.37
2018-02-21T07:51:26.537Z,35.57
2018-02-21T07:55:29.843Z,40.50
2018-02-21T07:59:33.126Z,38.77
2018-02-21T08:03:35.669Z,36.30
2018-02-21T08:07:38.193Z,34.03
2018-02-21T08:11:40.723Z,34.03
2018-02-21T08:15:43.256Z,34.37
2018-02-21T08:19:45.780Z,34.67
2018-02-21T08:23:49.078Z,38.47
2018-02-21T08:27:52.388Z,36.70
2018-02-21T08:31:55.666Z,37.87
2018-02-21T08:35:58.221Z,35.47
2018-02-21T08:40:00.729Z,37.93
2018-02-21T08:44:03.268Z,38.30
2018-02-21T08:48:05.928Z,38.87
2018-02-21T08:52:10.317Z,41.40
2018-02-21T08:56:12.874Z,39.60
2018-02-21T09:00:15.416Z,38.30
2018-02-21T09:04:17.939Z,36.40
2018-02-21T09:08:20.488Z,37.53
2018-02-21T09:12:23.777Z,36.67
2018-02-21T09:16:26.321Z,39.60
2018-02-21T09:20:28.842Z,45.10
2018-02-21T09:24:38.749Z,40.10
2018-02-21T09:28:41.309Z,40.57
2018-02-21T09:32:55.925Z,41.03
2018-02-21T09:36:58.498Z,42.17
2018-02-21T09:41:01.024Z,38.00
2018-02-21T09:45:03.589Z,42.53
2018-02-21T09:53:15.997Z,40.60
2018-02-21T09:57:19.282Z,39.83
2018-02-21T10:01:28.014Z,41.40
2018-02-21T10:05:30.535Z,41.90
2018-02-21T10:09:36.073Z,35.83
2018-02-21T10:13:49.969Z,34.40
2018-02-21T10:17:52.944Z,33.37
2018-02-21T10:21:55.516Z,32.33
2018-02-21T10:25:58.804Z,29.70
2018-02-21T10:30:02.139Z,30.90
2018-02-21T10:34:04.690Z,25.13
2018-02-21T10:38:27.877Z,27.17
2018-02-21T10:42:30.446Z,24.83
2018-02-21T10:50:49.489Z,27.77
2018-02-21T10:54:52.037Z,27.17
2018-02-21T10:58:55.359Z,22.80
2018-02-21T11:02:58.676Z,25.87
2018-02-21T11:07:12.545Z,23.93
2018-02-21T11:11:23.120Z,26.97
2018-02-21T11:15:25.695Z,30.70
2018-02-21T11:19:28.951Z,27.33
2018-02-21T11:23:32.265Z,24.27
2018-02-21T11:27:35.648Z,29.00
2018-02-21T11:31:38.227Z,27.40
2018-02-21T11:39:49.702Z,24.87
2018-02-21T11:43:52.261Z,25.90
2018-02-21T11:47:54.969Z,25.10
2018-02-21T11:51:58.277Z,17.57
2018-02-21T11:56:01.549Z,20.83
2018-02-21T12:00:04.095Z,25.13
2018-02-21T12:04:07.759Z,25.03
2018-02-21T12:08:10.290Z,26.70
2018-02-21T12:12:12.815Z,21.33
2018-02-21T12:16:15.372Z,24.20
2018-02-21T12:20:17.883Z,25.13
2018-02-21T12:24:20.410Z,23.33
2018-02-21T12:28:23.761Z,21.40
2018-02-21T12:32:26.265Z,25.63
2018-02-21T12:36:29.282Z,23.77
2018-02-21T12:40:38.386Z,21.87
2018-02-21T12:44:40.892Z,25.30
2018-02-21T12:48:43.426Z,23.10
2018-02-21T12:52:45.944Z,21.83
2018-02-21T12:56:48.496Z,21.60
2018-02-21T13:00:51.168Z,15.13
2018-02-21T13:04:54.473Z,20.60
2018-02-21T13:08:57.737Z,21.80
2018-02-21T13:13:00.283Z,19.83
2018-02-21T13:17:02.797Z,21.53
2018-02-21T13:21:05.466Z,20.90
2018-02-21T13:25:07.978Z,15.50
2018-02-21T13:29:10.574Z,18.50
2018-02-21T13:33:13.119Z,19.73
2018-02-21T13:37:15.659Z,17.17
2018-02-21T13:41:18.202Z,20.10
2018-02-21T13:45:20.736Z,14.60
2018-02-21T13:49:24.048Z,17.60
2018-02-21T13:53:27.349Z,17.30
2018-02-21T13:57:30.628Z,17.50
2018-02-21T14:01:33.167Z,14.07
2018-02-21T14:05:35.675Z,14.30
2018-02-21T14:09:38.204Z,16.30
2018-02-21T14:13:40.730Z,16.60
2018-02-21T14:17:43.266Z,16.77
2018-02-21T14:21:45.814Z,15.23
2018-02-21T14:25:48.332Z,18.13
2018-02-21T14:29:51.000Z,16.37
2018-02-21T14:33:53.606Z,17.03
2018-02-21T14:37:56.131Z,15.73
2018-02-21T14:41:58.657Z,16.83
2018-02-21T14:46:01.212Z,14.70
2018-02-21T14:50:03.729Z,18.97
2018-02-21T14:54:06.271Z,14.47
2018-02-21T14:58:09.571Z,16.60
2018-02-21T15:02:12.177Z,16.87
2018-02-21T15:06:14.742Z,17.10
2018-02-21T15:10:18.031Z,16.47
2018-02-21T15:14:20.573Z,18.00
2018-02-21T15:18:23.090Z,18.23
2018-02-21T15:22:25.653Z,14.90
2018-02-21T16:30:26.910Z,19.50
2018-02-21T16:36:25.822Z,18.73
2018-02-21T16:40:29.162Z,20.97
2018-02-21T16:44:31.768Z,18.63
2018-02-21T16:48:36.101Z,19.70
2018-02-21T16:52:41.078Z,23.67
2018-02-21T16:56:44.442Z,18.87
2018-02-21T17:00:47.049Z,20.83
2018-02-21T17:04:49.647Z,24.23
2018-02-21T17:08:52.252Z,22.73
2018-02-21T17:12:56.566Z,19.20
2018-02-21T17:16:59.241Z,20.53
2018-02-21T17:21:01.846Z,24.10
2018-02-21T17:25:05.202Z,23.10
2018-02-21T17:29:07.760Z,22.00
2018-02-21T17:33:10.359Z,58.60
2018-02-21T17:37:12.928Z,25.13
2018-02-21T17:41:22.040Z,21.90
2018-02-21T17:45:24.626Z,22.97
2018-02-21T17:49:27.220Z,21.40
2018-02-21T17:53:29.808Z,20.67
2018-02-21T17:57:32.403Z,22.27
2018-02-21T18:01:35.008Z,20.03
2018-02-21T18:05:37.591Z,23.67
2018-02-21T18:09:40.196Z,43.17
2018-02-21T18:13:43.752Z,41.13
2018-02-21T18:17:46.366Z,40.97
2018-02-21T18:21:50.854Z,46.67
2018-02-21T18:25:53.494Z,37.13
2018-02-21T18:29:56.946Z,27.63
2018-02-21T18:33:59.508Z,32.13
2018-02-21T18:38:02.102Z,29.27
2018-02-21T18:42:04.683Z,25.00
2018-02-21T18:46:07.307Z,26.70
2018-02-21T18:50:09.877Z,26.53
2018-02-21T18:54:12.481Z,28.57
2018-02-21T18:58:15.068Z,28.27
2018-02-21T19:02:17.657Z,28.77
2018-02-21T19:06:20.232Z,26.87
2018-02-21T19:10:22.814Z,29.87
2018-02-21T19:14:25.434Z,28.23
2018-02-21T19:18:28.041Z,27.67
2018-02-21T19:22:30.615Z,29.57
2018-02-21T19:26:33.284Z,25.13
2018-02-21T19:30:35.847Z,31.60
2018-02-21T19:34:38.456Z,27.80
2018-02-21T19:38:41.058Z,31.70
2018-02-21T19:42:44.763Z,32.00
2018-02-21T19:46:47.360Z,31.07
2018-02-21T19:50:49.978Z,32.90
2018-02-21T19:54:53.304Z,30.00
2018-02-21T19:58:56.079Z,31.33
2018-02-21T20:02:58.645Z,29.93
2018-02-21T20:07:01.594Z,29.77
2018-02-21T20:11:04.171Z,31.00
2018-02-21T20:15:06.759Z,30.20
2018-02-21T20:19:09.326Z,28.70
2018-02-21T20:23:11.942Z,32.53
2018-02-21T20:27:14.566Z,26.57
2018-02-21T20:31:17.182Z,29.53
2018-02-21T20:35:20.517Z,29.77
2018-02-21T20:39:23.103Z,28.10
2018-02-21T20:43:25.669Z,31.57
2018-02-21T20:47:29.024Z,26.70
2018-02-21T20:51:31.602Z,27.20
2018-02-21T20:55:34.217Z,30.37
2018-02-21T20:59:36.818Z,26.37
2018-02-21T21:03:40.192Z,26.93
2018-02-21T21:07:42.764Z,26.40
2018-02-21T21:11:45.363Z,28.20
2018-02-21T21:15:47.960Z,23.63
2018-02-21T21:19:50.611Z,26.90
2018-02-21T21:23:53.214Z,26.83
2018-02-21T21:27:55.852Z,26.67
2018-02-21T21:31:59.199Z,26.60
2018-02-21T23:03:26.540Z,28.17
2018-02-21T23:07:29.894Z,27.77
2018-02-21T23:11:32.487Z,29.73
2018-02-21T23:15:35.123Z,28.30
2018-02-21T23:19:37.766Z,30.63
2018-02-21T23:23:40.364Z,31.73
2018-02-21T23:27:43.317Z,33.57
2018-02-21T23:31:46.024Z,29.17
2018-02-21T23:35:48.677Z,34.63
2018-02-21T23:39:52.045Z,31.40
2018-02-21T23:43:54.705Z,33.33
2018-02-21T23:47:57.269Z,31.77
2018-02-21T23:51:59.936Z,31.73
2018-02-21T23:56:03.332Z,31.63
